Time;durP1;ratioP1;P1;durP2;ratioP2;P2;SDS_P1;SDS_P2;PMS_P1;PMS_P2;Temp;Humidity;BMP_temperature;BMP_pressure;BME280_temperature;BME280_humidity;BME280_pressure;Samples;Min_cycle;Max_cycle;Signal;HPM_P1;HPM_P2
2023/05/03 00:00:01;;;;;;;2.95;1.40;;;16.10;99.90;;;;;;5093238;28;20040;-86
2023/05/03 00:02:27;;;;;;;3.55;1.80;;;16.10;99.90;;;;;;5091768;28;20111;-87
2023/05/03 00:04:53;;;;;;;3.13;1.48;;;16.00;99.90;;;;;;5091685;28;20031;-87
2023/05/03 00:07:19;;;;;;;;;;;16.00;99.90;;;;;;5092323;28;20023;-86
2023/05/03 00:09:44;;;;;;;4.87;1.60;;;16.00;99.90;;;;;;5093317;28;19904;-87
2023/05/03 00:12:10;;;;;;;4.03;2.00;;;16.00;99.90;;;;;;5091930;28;20114;-87
2023/05/03 00:14:36;;;;;;;4.38;1.80;;;16.00;99.90;;;;;;5092095;28;20031;-86
2023/05/03 00:17:01;;;;;;;;;;;16.00;99.90;;;;;;5092767;28;20032;-87
2023/05/03 00:19:32;;;;;;;6.82;2.00;;;16.00;99.90;;;;;;5091185;28;19920;-85
2023/05/03 00:21:58;;;;;;;4.90;1.90;;;16.00;99.90;;;;;;5091790;28;20079;-86
2023/05/03 00:24:24;;;;;;;6.28;1.80;;;16.00;99.90;;;;;;5090605;28;20020;-89
2023/05/03 00:26:50;;;;;;;;;;;16.00;99.90;;;;;;5091212;28;20020;-90
2023/05/03 00:29:15;;;;;;;3.20;1.73;;;16.00;99.90;;;;;;5092378;28;20010;-90
2023/05/03 00:31:44;;;;;;;3.47;1.52;;;16.00;99.90;;;;;;5092873;28;20094;-90
2023/05/03 00:34:10;;;;;;;6.50;1.80;;;16.00;99.90;;;;;;5091022;28;20024;-89
2023/05/03 00:36:35;;;;;;;4.30;1.98;;;16.00;99.90;;;;;;5091666;28;20446;-89
2023/05/03 00:39:01;;;;;;;;;;;16.00;99.90;;;;;;5091922;28;20078;-88
2023/05/03 00:41:26;;;;;;;3.22;1.90;;;15.90;99.90;;;;;;5090850;28;19911;-88
2023/05/03 00:43:52;;;;;;;;;;;15.90;99.90;;;;;;5090941;28;20039;-88
2023/05/03 00:46:18;;;;;;;3.05;1.30;;;15.80;99.90;;;;;;5091627;28;19904;-89
2023/05/03 00:48:46;;;;;;;3.63;2.17;;;15.80;99.90;;;;;;5091962;28;20028;-87
2023/05/03 00:51:14;;;;;;;3.42;1.50;;;15.80;99.90;;;;;;5089748;28;20161;-87
2023/05/03 00:53:44;;;;;;;4.15;2.30;;;15.80;99.90;;;;;;5091621;28;20031;-87
2023/05/03 00:56:10;;;;;;;3.00;1.60;;;15.70;99.90;;;;;;5090825;28;20111;-86
2023/05/03 00:58:38;;;;;;;10.07;1.80;;;15.70;99.90;;;;;;5089811;28;20028;-86
2023/05/03 01:01:06;;;;;;;5.18;2.38;;;15.60;99.90;;;;;;5089485;28;20040;-86
2023/05/03 01:03:35;;;;;;;8.55;2.17;;;15.50;99.90;;;;;;5088573;28;20029;-85
2023/05/03 01:06:44;;;;;;;5.78;2.22;;;15.50;99.90;;;;;;5088936;28;20118;-88
2023/05/03 01:09:41;;;;;;;3.47;2.33;;;15.40;99.90;;;;;;5089166;28;20119;-86
2023/05/03 01:12:13;;;;;;;4.05;2.40;;;15.40;99.90;;;;;;5089228;28;20392;-88
2023/05/03 01:14:51;;;;;;;5.75;2.53;;;15.30;99.90;;;;;;5090052;28;20024;-87
2023/05/03 01:17:24;;;;;;;8.88;2.30;;;15.30;99.90;;;;;;5089496;28;20032;-87
2023/05/03 01:20:03;;;;;;;5.80;2.47;;;15.20;99.90;;;;;;5093104;28;20074;-88
2023/05/03 01:23:17;;;;;;;7.72;2.63;;;15.10;99.90;;;;;;5093362;28;20039;-86
2023/05/03 01:25:42;;;;;;;7.78;2.30;;;15.00;99.90;;;;;;4996051;28;20042;-87
2023/05/03 01:28:08;;;;;;;;;;;15.00;99.90;;;;;;4996121;28;20169;-88
2023/05/03 01:30:35;;;;;;;3.75;2.10;;;14.90;99.90;;;;;;5045153;28;19926;-87
2023/05/03 01:33:08;;;;;;;3.97;2.25;;;14.90;99.90;;;;;;5093046;28;20123;-88
2023/05/03 01:35:43;;;;;;;5.57;2.65;;;14.80;99.90;;;;;;5093257;28;20016;-88
2023/05/03 01:38:10;;;;;;;7.80;2.20;;;14.80;99.90;;;;;;5092773;28;20036;-88
2023/05/03 01:40:59;;;;;;;7.13;2.83;;;14.80;99.90;;;;;;5092633;28;20032;-88
2023/05/03 01:43:25;;;;;;;5.97;2.78;;;14.80;99.90;;;;;;5093074;28;20056;-88
2023/05/03 01:45:51;;;;;;;6.75;2.55;;;14.70;99.90;;;;;;5093189;28;20039;-88
2023/05/03 01:48:18;;;;;;;6.03;2.15;;;14.70;99.90;;;;;;5092253;28;20126;-86
2023/05/03 01:50:44;;;;;;;3.28;2.15;;;14.70;99.90;;;;;;5092705;28;20543;-88
2023/05/03 01:53:11;;;;;;;4.15;2.15;;;14.70;99.90;;;;;;5095507;28;20032;-86
2023/05/03 01:55:37;;;;;;;5.60;2.00;;;14.60;99.90;;;;;;5092493;28;20359;-88
2023/05/03 01:58:02;;;;;;;;;;;14.70;99.90;;;;;;5092806;28;20032;-87
2023/05/03 02:00:28;;;;;;;3.90;2.20;;;14.70;99.90;;;;;;5092193;28;19922;-86
2023/05/03 02:02:53;;;;;;;;;;;14.70;99.90;;;;;;5093245;28;20020;-87
2023/05/03 02:05:19;;;;;;;8.32;2.28;;;14.60;99.90;;;;;;5093685;28;19904;-89
2023/05/03 02:07:45;;;;;;;6.38;2.65;;;14.60;99.90;;;;;;5094243;28;20024;-88
2023/05/03 02:10:13;;;;;;;4.35;2.30;;;14.70;99.90;;;;;;5094085;28;20028;-88
2023/05/03 02:12:43;;;;;;;4.15;2.53;;;14.70;99.90;;;;;;5094124;28;20024;-86
2023/05/03 02:15:10;;;;;;;5.93;2.30;;;14.70;99.90;;;;;;5094128;28;20020;-86
2023/05/03 02:17:36;;;;;;;6.38;2.28;;;14.70;99.90;;;;;;5094160;28;20028;-87
2023/05/03 02:20:04;;;;;;;5.22;2.30;;;14.60;99.90;;;;;;5093218;28;20050;-88
2023/05/03 02:22:31;;;;;;;4.63;2.08;;;14.60;99.90;;;;;;5093803;28;20024;-87
2023/05/03 02:24:57;;;;;;;9.52;2.60;;;14.50;99.90;;;;;;5095223;28;20107;-89
2023/05/03 02:27:23;;;;;;;5.30;2.55;;;14.50;99.90;;;;;;5093101;28;20024;-90
2023/05/03 02:29:49;;;;;;;3.65;2.22;;;14.60;99.90;;;;;;5092409;28;20104;-90
2023/05/03 02:32:14;;;;;;;;;;;14.60;99.90;;;;;;5094408;28;20115;-88
2023/05/03 02:34:43;;;;;;;5.28;2.30;;;14.60;99.90;;;;;;5095205;28;19908;-89
2023/05/03 02:37:08;;;;;;;6.05;2.15;;;14.70;99.90;;;;;;5093046;28;20036;-89
2023/05/03 02:39:34;;;;;;;;;;;14.70;99.90;;;;;;5094286;28;20032;-88
2023/05/03 02:42:01;;;;;;;9.93;2.25;;;14.70;99.90;;;;;;5093596;28;19904;-88
2023/05/03 02:44:27;;;;;;;5.35;2.20;;;14.70;99.90;;;;;;5092333;28;20446;-87
2023/05/03 02:46:53;;;;;;;;;;;14.60;99.90;;;;;;5094569;28;20077;-87
2023/05/03 02:49:19;;;;;;;6.60;2.23;;;14.60;99.90;;;;;;5093974;28;19904;-88
2023/05/03 02:51:44;;;;;;;;;;;14.50;99.90;;;;;;5097540;28;20261;-86
2023/05/03 02:54:11;;;;;;;9.30;2.33;;;14.50;99.90;;;;;;5094376;28;19987;-87
2023/05/03 02:56:37;;;;;;;3.95;1.80;;;14.50;99.90;;;;;;5093361;28;20031;-87
2023/05/03 02:59:02;;;;;;;4.32;2.22;;;14.50;99.90;;;;;;5093004;28;20581;-88
2023/05/03 03:01:28;;;;;;;;;;;14.40;99.90;;;;;;5093847;28;20028;-88
2023/05/03 03:03:54;;;;;;;8.30;2.33;;;14.40;99.90;;;;;;5093420;28;19943;-88
2023/05/03 03:06:20;;;;;;;4.53;2.67;;;14.30;99.90;;;;;;5093210;28;20024;-87
2023/05/03 03:08:46;;;;;;;;;;;14.30;99.90;;;;;;5093555;28;20093;-87
2023/05/03 03:11:12;;;;;;;5.85;2.70;;;14.30;99.90;;;;;;5092781;28;19908;-87
2023/05/03 03:13:39;;;;;;;;;;;14.30;99.90;;;;;;5093467;28;20054;-88
2023/05/03 03:16:08;;;;;;;7.50;3.20;;;14.30;99.90;;;;;;5092767;28;19943;-87
2023/05/03 03:18:34;;;;;;;6.32;3.85;;;14.30;99.90;;;;;;5092583;28;20044;-86
2023/05/03 03:21:03;;;;;;;7.55;3.67;;;14.30;99.90;;;;;;5092445;28;20040;-88
2023/05/03 03:23:29;;;;;;;6.93;2.85;;;14.40;99.90;;;;;;5092305;28;20034;-88
2023/05/03 03:25:55;;;;;;;;;;;14.40;99.90;;;;;;5091925;28;20123;-88
2023/05/03 03:28:20;;;;;;;5.88;2.67;;;14.40;99.90;;;;;;5092081;28;19904;-88
2023/05/03 03:30:46;;;;;;;;;;;14.50;99.90;;;;;;5093406;28;20044;-87
2023/05/03 03:33:12;;;;;;;5.63;2.28;;;14.50;99.90;;;;;;5092616;28;19911;-88
2023/05/03 03:35:38;;;;;;;;;;;14.50;99.90;;;;;;5092678;28;20370;-87
2023/05/03 03:38:04;;;;;;;8.23;2.97;;;14.50;99.90;;;;;;5092454;28;19912;-88
2023/05/03 03:40:30;;;;;;;4.10;2.38;;;14.50;99.90;;;;;;5091359;28;20036;-87
2023/05/03 03:42:56;;;;;;;;;;;14.60;99.90;;;;;;5092660;28;20054;-87
2023/05/03 03:45:21;;;;;;;7.15;2.20;;;14.60;99.90;;;;;;5092765;28;20006;-88
2023/05/03 03:47:47;;;;;;;7.68;2.40;;;14.60;99.90;;;;;;5092416;28;20495;-88
2023/05/03 03:50:12;;;;;;;;;;;14.70;99.90;;;;;;5092887;28;20028;-87
2023/05/03 03:52:38;;;;;;;3.80;2.40;;;14.80;99.90;;;;;;5092441;28;19934;-88
2023/05/03 03:55:05;;;;;;;8.98;2.42;;;14.90;99.90;;;;;;5091162;28;20028;-88
2023/05/03 03:57:31;;;;;;;5.07;2.25;;;15.00;99.90;;;;;;5092129;28;20024;-86
2023/05/03 03:59:57;;;;;;;;;;;15.00;99.90;;;;;;5075786;28;20024;-88
2023/05/03 04:02:23;;;;;;;3.97;1.65;;;15.00;99.90;;;;;;5092466;28;20362;-87
2023/05/03 04:04:49;;;;;;;8.52;2.13;;;15.00;99.90;;;;;;5092431;28;20078;-87
2023/05/03 04:07:14;;;;;;;;;;;15.10;99.90;;;;;;5092322;28;20028;-86
2023/05/03 04:09:40;;;;;;;5.20;2.17;;;15.10;99.90;;;;;;5090813;28;19908;-88
2023/05/03 04:12:06;;;;;;;;;;;15.20;99.90;;;;;;5092695;28;20028;-88
2023/05/03 04:14:31;;;;;;;7.10;2.08;;;15.20;99.90;;;;;;5092390;28;19908;-87
2023/05/03 04:16:57;;;;;;;5.05;2.00;;;15.30;99.90;;;;;;5092277;28;20038;-88
2023/05/03 04:19:24;;;;;;;;;;;15.40;99.90;;;;;;5091527;28;20075;-88
2023/05/03 04:21:50;;;;;;;6.18;2.17;;;15.50;99.90;;;;;;5090589;28;19904;-86
2023/05/03 04:24:16;;;;;;;;;;;15.50;99.90;;;;;;5089982;28;20020;-87
2023/05/03 04:26:42;;;;;;;4.80;2.17;;;15.60;99.90;;;;;;5091770;28;19923;-88
2023/05/03 04:29:09;;;;;;;4.90;2.35;;;15.70;99.90;;;;;;5092238;28;20074;-88
2023/05/03 04:31:35;;;;;;;5.63;2.20;;;15.80;99.90;;;;;;5091760;28;20016;-88
2023/05/03 04:34:00;;;;;;;;;;;15.80;99.90;;;;;;5092282;28;20538;-88
2023/05/03 04:36:28;;;;;;;6.22;1.92;;;15.90;99.90;;;;;;5092198;28;19998;-87
2023/05/03 04:38:54;;;;;;;4.05;1.48;;;15.90;99.90;;;;;;5093115;28;20047;-88
2023/05/03 04:41:21;;;;;;;4.95;1.85;;;15.90;99.90;;;;;;5091903;28;20059;-87
2023/05/03 04:43:46;;;;;;;4.68;1.92;;;15.90;99.90;;;;;;5091288;28;20020;-87
2023/05/03 04:46:12;;;;;;;5.05;2.28;;;15.90;99.90;;;;;;5091432;28;20050;-87
2023/05/03 04:48:38;;;;;;;4.32;1.95;;;16.00;99.90;;;;;;5094050;28;20124;-86
2023/05/03 04:51:04;;;;;;;6.80;1.80;;;16.10;99.90;;;;;;5092482;28;20508;-87
2023/05/03 04:53:30;;;;;;;;;;;16.10;99.90;;;;;;5095711;28;20039;-87
2023/05/03 04:55:55;;;;;;;2.88;1.60;;;16.20;99.90;;;;;;5097634;28;20448;-87
2023/05/03 04:58:21;;;;;;;4.15;1.63;;;16.40;99.90;;;;;;5095687;28;20154;-88
2023/05/03 05:00:47;;;;;;;6.95;2.00;;;16.50;99.90;;;;;;5095727;28;20500;-89
2023/05/03 05:03:13;;;;;;;4.07;2.10;;;16.60;99.90;;;;;;5095819;28;20477;-88
2023/05/03 05:05:39;;;;;;;5.53;2.58;;;16.70;99.90;;;;;;5095453;28;20027;-87
2023/05/03 05:08:04;;;;;;;;;;;16.70;99.90;;;;;;5096000;28;20031;-88
2023/05/03 05:10:30;;;;;;;3.78;1.83;;;16.70;99.90;;;;;;5096958;28;19908;-87
2023/05/03 05:12:56;;;;;;;11.38;2.60;;;16.70;99.90;;;;;;5095239;28;20051;-88
2023/05/03 05:15:22;;;;;;;5.28;2.22;;;16.70;99.90;;;;;;5095603;28;20059;-87
2023/05/03 05:17:48;;;;;;;7.97;2.00;;;16.80;99.90;;;;;;5095070;28;20023;-88
2023/05/03 05:20:13;;;;;;;6.93;1.98;;;16.90;99.90;;;;;;5094838;28;20052;-87
2023/05/03 05:22:39;;;;;;;8.60;2.03;;;16.90;99.90;;;;;;5095308;28;20093;-88
2023/05/03 05:25:06;;;;;;;5.57;2.00;;;16.90;99.90;;;;;;5095332;28;20400;-87
2023/05/03 05:27:32;;;;;;;5.22;2.47;;;17.00;99.90;;;;;;5095222;28;20048;-88
2023/05/03 05:29:58;;;;;;;5.93;1.88;;;16.90;99.90;;;;;;5095029;28;20028;-87
2023/05/03 05:32:23;;;;;;;11.70;3.05;;;17.00;99.90;;;;;;5095123;28;20038;-88
2023/05/03 05:34:54;;;;;;;5.22;1.55;;;17.10;99.90;;;;;;5096053;28;20492;-88
2023/05/03 05:37:21;;;;;;;6.22;1.52;;;17.20;99.90;;;;;;5095171;28;20020;-88
2023/05/03 05:39:46;;;;;;;13.55;4.40;;;17.20;99.90;;;;;;5094907;28;20373;-88
2023/05/03 05:42:12;;;;;;;8.77;4.57;;;17.40;99.90;;;;;;5094956;28;20043;-88
2023/05/03 05:44:38;;;;;;;9.98;4.22;;;17.50;99.90;;;;;;5094874;28;20107;-88
2023/05/03 05:47:04;;;;;;;8.15;3.40;;;17.60;99.90;;;;;;5091994;28;20374;-88
2023/05/03 05:49:29;;;;;;;11.73;4.40;;;17.70;99.90;;;;;;5094596;28;20028;-88
2023/05/03 05:51:56;;;;;;;12.38;6.75;;;18.00;99.90;;;;;;5094960;28;20113;-88
2023/05/03 05:54:22;;;;;;;8.50;4.90;;;18.20;99.90;;;;;;5094461;28;20119;-87
2023/05/03 05:57:06;;;;;;;12.23;5.97;;;18.50;99.90;;;;;;5094627;28;20744;-88
2023/05/03 05:59:32;;;;;;;7.40;3.20;;;18.80;99.90;;;;;;5094766;28;20024;-88
2023/05/03 06:01:59;;;;;;;4.32;2.42;;;19.10;99.90;;;;;;5094614;28;20078;-88
2023/05/03 06:04:25;;;;;;;5.70;2.92;;;19.50;99.90;;;;;;5093469;28;20063;-88
2023/05/03 06:06:51;;;;;;;4.93;2.28;;;20.00;95.30;;;;;;5093709;28;20028;-87
2023/05/03 06:09:17;;;;;;;6.97;1.90;;;20.40;91.20;;;;;;5093998;28;20028;-89
2023/05/03 06:11:42;;;;;;;5.22;2.80;;;20.90;89.30;;;;;;5094301;28;20073;-88
2023/05/03 06:14:08;;;;;;;5.13;2.17;;;21.20;86.30;;;;;;5094396;28;20115;-88
2023/05/03 06:16:36;;;;;;;5.05;1.55;;;21.20;85.00;;;;;;5094283;28;20073;-89
2023/05/03 06:19:01;;;;;;;5.72;2.05;;;20.90;75.80;;;;;;5094314;28;20451;-88
2023/05/03 06:21:28;;;;;;;7.28;4.10;;;20.70;81.60;;;;;;5094222;28;20032;-87
2023/05/03 06:23:54;;;;;;;8.07;3.67;;;20.50;84.60;;;;;;5094446;28;20024;-88
2023/05/03 06:26:20;;;;;;;6.70;3.92;;;20.50;84.80;;;;;;5094215;28;20027;-88
2023/05/03 06:28:46;;;;;;;6.80;3.10;;;20.50;84.80;;;;;;5094330;28;20020;-87
2023/05/03 06:31:12;;;;;;;6.85;3.85;;;20.50;83.20;;;;;;5094554;28;20035;-88
2023/05/03 06:33:37;;;;;;;7.10;2.45;;;20.50;84.10;;;;;;5093998;28;20039;-88
2023/05/03 06:36:03;;;;;;;3.58;2.15;;;20.50;83.40;;;;;;5093840;28;20503;-88
2023/05/03 06:38:29;;;;;;;4.50;2.45;;;20.30;81.30;;;;;;5093172;28;20028;-88
2023/05/03 06:40:55;;;;;;;8.93;2.42;;;20.30;82.70;;;;;;5093425;28;20051;-88
2023/05/03 06:43:21;;;;;;;4.00;1.63;;;20.20;87.80;;;;;;5095037;28;20119;-88
2023/05/03 06:45:47;;;;;;;4.30;1.63;;;20.20;87.50;;;;;;5095904;28;20024;-88
2023/05/03 06:48:12;;;;;;;4.07;1.40;;;20.20;87.20;;;;;;5093640;28;20104;-88
2023/05/03 06:50:38;;;;;;;6.80;1.98;;;20.10;88.10;;;;;;5093730;28;20492;-88
2023/05/03 06:53:04;;;;;;;9.45;3.10;;;20.00;88.70;;;;;;5093425;28;20024;-88
2023/05/03 06:55:31;;;;;;;4.53;2.10;;;19.70;90.40;;;;;;5093142;28;20031;-87
2023/05/03 06:57:57;;;;;;;6.65;2.38;;;19.60;91.80;;;;;;5092269;28;20044;-87
2023/05/03 07:00:24;;;;;;;4.55;1.77;;;19.40;92.40;;;;;;5091978;28;20105;-87
2023/05/03 07:02:50;;;;;;;7.63;2.10;;;19.20;92.90;;;;;;5093417;28;20519;-88
2023/05/03 07:05:16;;;;;;;5.75;2.40;;;19.10;92.40;;;;;;5093611;28;20028;-88
2023/05/03 07:07:41;;;;;;;4.88;2.15;;;19.00;91.80;;;;;;5094840;28;20538;-88
2023/05/03 07:10:07;;;;;;;3.60;1.52;;;19.00;92.30;;;;;;5093368;28;20491;-88
2023/05/03 07:12:33;;;;;;;5.20;1.80;;;19.10;91.20;;;;;;5093389;28;20035;-88
2023/05/03 07:14:59;;;;;;;6.13;3.40;;;19.30;90.20;;;;;;5090899;28;20054;-88
2023/05/03 07:17:24;;;;;;;11.20;3.75;;;19.30;87.50;;;;;;5091235;28;20020;-89
2023/05/03 07:19:51;;;;;;;3.80;1.60;;;19.70;86.60;;;;;;5091799;28;20075;-87
2023/05/03 07:22:19;;;;;;;6.35;1.50;;;20.00;82.90;;;;;;5092525;28;20106;-89
2023/05/03 07:24:45;;;;;;;5.82;1.67;;;20.40;81.10;;;;;;5091271;28;20416;-86
2023/05/03 07:27:10;;;;;;;3.28;1.25;;;20.60;78.70;;;;;;5091953;28;20038;-87
2023/05/03 07:29:36;;;;;;;3.78;1.58;;;20.70;76.70;;;;;;5090340;28;20027;-86
2023/05/03 07:32:02;;;;;;;5.07;1.55;;;20.60;76.70;;;;;;5091374;28;20050;-88
2023/05/03 07:34:28;;;;;;;3.22;1.30;;;20.50;78.10;;;;;;5093125;28;20016;-89
2023/05/03 07:36:54;;;;;;;2.20;1.10;;;20.50;77.70;;;;;;5093637;28;20115;-87
2023/05/03 07:39:20;;;;;;;2.28;1.10;;;20.50;78.00;;;;;;5092177;28;20039;-87
2023/05/03 07:41:45;;;;;;;3.70;1.20;;;20.60;77.20;;;;;;5091285;28;20031;-88
2023/05/03 07:44:11;;;;;;;3.60;1.45;;;20.60;76.80;;;;;;5093618;28;20028;-87
2023/05/03 07:46:37;;;;;;;7.90;1.50;;;20.60;78.30;;;;;;5092863;28;20035;-88
2023/05/03 07:49:04;;;;;;;4.22;1.45;;;20.60;77.40;;;;;;5091261;28;20085;-87
2023/05/03 07:51:34;;;;;;;3.80;1.42;;;20.60;76.60;;;;;;5092363;28;20103;-88
2023/05/03 07:54:00;;;;;;;4.13;1.58;;;20.50;77.10;;;;;;5092677;28;20028;-88
2023/05/03 07:56:29;;;;;;;4.10;1.35;;;20.50;77.30;;;;;;5092432;28;20469;-88
2023/05/03 07:58:56;;;;;;;3.25;1.50;;;20.60;78.80;;;;;;5092573;28;20032;-88
2023/05/03 08:01:22;;;;;;;3.83;1.60;;;20.60;77.50;;;;;;5092341;28;20039;-87
2023/05/03 08:03:50;;;;;;;2.25;1.23;;;20.30;77.50;;;;;;5092388;28;20028;-88
2023/05/03 08:06:16;;;;;;;6.45;2.33;;;20.40;79.20;;;;;;5091915;28;20028;-87
2023/05/03 08:08:42;;;;;;;3.50;2.03;;;20.40;78.90;;;;;;5089438;28;20023;-87
2023/05/03 08:11:08;;;;;;;4.90;2.28;;;20.30;83.60;;;;;;5090493;28;20491;-88
2023/05/03 08:13:34;;;;;;;8.45;1.90;;;20.10;87.00;;;;;;5092182;28;20511;-88
2023/05/03 08:15:59;;;;;;;5.38;2.08;;;20.10;88.00;;;;;;5091895;28;20055;-87
2023/05/03 08:18:26;;;;;;;4.28;2.47;;;20.10;90.00;;;;;;5090770;28;20039;-87
2023/05/03 08:20:52;;;;;;;3.78;1.90;;;20.10;90.10;;;;;;5090098;28;20130;-87
2023/05/03 08:23:18;;;;;;;3.30;1.95;;;20.10;90.50;;;;;;5092179;28;20024;-87
2023/05/03 08:25:44;;;;;;;3.63;1.20;;;20.00;89.80;;;;;;5090548;28;20059;-87
2023/05/03 08:28:10;;;;;;;2.72;1.42;;;20.00;88.60;;;;;;5090006;28;20055;-87
2023/05/03 08:30:36;;;;;;;6.80;1.50;;;20.00;88.30;;;;;;5091956;28;20450;-88
2023/05/03 08:33:02;;;;;;;4.63;2.20;;;19.90;90.10;;;;;;5091186;28;20085;-87
2023/05/03 08:35:28;;;;;;;2.75;1.50;;;19.90;92.70;;;;;;5090349;28;20040;-88
2023/05/03 08:37:54;;;;;;;5.13;1.67;;;19.90;92.90;;;;;;5091422;28;20500;-88
2023/05/03 08:40:25;;;;;;;4.18;1.70;;;20.00;92.70;;;;;;5096321;28;20036;-88
2023/05/03 08:42:54;;;;;;;4.20;1.38;;;20.00;91.00;;;;;;5092000;28;20077;-88
2023/05/03 08:45:19;;;;;;;4.68;1.65;;;20.00;90.20;;;;;;5091691;28;20028;-87
2023/05/03 08:47:45;;;;;;;6.60;1.85;;;20.00;90.30;;;;;;5091528;28;20024;-87
2023/05/03 08:50:12;;;;;;;5.40;1.80;;;20.00;87.80;;;;;;5091809;28;20073;-87
2023/05/03 08:52:43;;;;;;;8.35;1.42;;;20.10;86.60;;;;;;5091950;28;20031;-88
2023/05/03 08:55:10;;;;;;;2.92;1.23;;;20.20;85.90;;;;;;5091630;28;20099;-88
2023/05/03 08:57:36;;;;;;;1.75;0.95;;;20.20;83.90;;;;;;5091441;28;20115;-87
2023/05/03 09:00:04;;;;;;;4.13;1.52;;;20.30;84.60;;;;;;5091558;28;20028;-88
2023/05/03 09:02:33;;;;;;;8.02;1.63;;;20.40;85.10;;;;;;5091440;28;20028;-87
2023/05/03 09:04:59;;;;;;;5.60;1.50;;;20.50;84.00;;;;;;5091699;28;20488;-88
2023/05/03 09:07:25;;;;;;;3.55;1.27;;;20.70;82.50;;;;;;5091565;28;20074;-87
2023/05/03 09:09:52;;;;;;;3.17;1.40;;;20.80;80.30;;;;;;5091697;28;20446;-88
2023/05/03 09:12:39;;;;;;;2.47;1.20;;;20.90;78.20;;;;;;5092699;28;20090;-88
2023/05/03 09:15:06;;;;;;;1.88;1.10;;;20.90;75.60;;;;;;5091308;28;20016;-88
2023/05/03 09:17:32;;;;;;;4.00;1.45;;;21.00;78.30;;;;;;5091439;28;20032;-88
2023/05/03 09:19:59;;;;;;;4.25;1.60;;;21.10;77.00;;;;;;5091460;28;20581;-87
2023/05/03 09:22:27;;;;;;;2.85;1.77;;;21.40;77.80;;;;;;5091287;28;20076;-87
2023/05/03 09:24:58;;;;;;;2.70;1.58;;;21.80;77.10;;;;;;5091470;28;20139;-88
2023/05/03 09:27:25;;;;;;;4.65;1.83;;;22.20;75.40;;;;;;5091626;28;20354;-89
2023/05/03 09:29:52;;;;;;;2.90;1.58;;;22.40;72.10;;;;;;5091401;28;20024;-87
2023/05/03 09:32:18;;;;;;;7.00;1.67;;;22.50;72.30;;;;;;5090617;28;20080;-87
2023/05/03 09:34:44;;;;;;;2.83;1.50;;;22.80;73.00;;;;;;5089227;28;20070;-87
2023/05/03 09:37:14;;;;;;;4.00;1.40;;;23.00;71.20;;;;;;5090654;28;20016;-87
2023/05/03 09:39:41;;;;;;;4.15;1.58;;;23.10;69.70;;;;;;5094490;28;20032;-87
2023/05/03 09:42:27;;;;;;;4.10;1.50;;;23.10;69.40;;;;;;5094833;28;20054;-88
2023/05/03 09:44:54;;;;;;;7.28;1.92;;;23.00;68.20;;;;;;5095050;28;20404;-87
2023/05/03 09:47:24;;;;;;;2.17;1.48;;;22.90;69.20;;;;;;5094851;28;20035;-86
2023/05/03 09:49:50;;;;;;;8.57;1.40;;;23.10;68.90;;;;;;5095863;28;20144;-88
2023/05/03 09:52:15;;;;;;;4.30;1.90;;;23.20;68.20;;;;;;5094651;28;20773;-87
2023/05/03 09:54:42;;;;;;;10.65;1.77;;;23.30;67.00;;;;;;5093390;28;20020;-87
2023/05/03 09:57:08;;;;;;;7.10;2.97;;;23.50;66.60;;;;;;5092948;28;20409;-87
2023/05/03 09:59:35;;;;;;;9.00;2.55;;;24.00;65.60;;;;;;5093594;28;20127;-85
2023/05/03 10:02:06;;;;;;;4.78;2.08;;;24.30;64.30;;;;;;5093349;28;20032;-86
2023/05/03 10:04:42;;;;;;;4.25;1.75;;;24.50;63.60;;;;;;5093854;28;20520;-85
2023/05/03 10:07:12;;;;;;;1.98;1.65;;;24.70;62.20;;;;;;5093828;28;20059;-85
2023/05/03 10:09:46;;;;;;;10.48;1.90;;;24.90;62.20;;;;;;5091812;28;20036;-85
2023/05/03 10:12:15;;;;;;;4.63;1.95;;;25.10;61.80;;;;;;5091967;28;20027;-86
2023/05/03 10:14:43;;;;;;;8.18;1.35;;;25.40;60.70;;;;;;5093211;28;20043;-84
2023/05/03 10:17:22;;;;;;;2.90;1.67;;;25.50;59.30;;;;;;5091748;28;20036;-85
2023/05/03 10:20:21;;;;;;;8.55;2.28;;;25.60;59.20;;;;;;5091474;28;20481;-86
2023/05/03 10:23:10;;;;;;;2.67;1.58;;;25.60;58.10;;;;;;5092115;28;20028;-86
2023/05/03 10:25:37;;;;;;;2.63;1.23;;;25.50;59.00;;;;;;5091652;28;20408;-86
2023/05/03 10:28:07;;;;;;;7.15;1.85;;;25.40;59.00;;;;;;5091697;28;20035;-85
2023/05/03 10:30:34;;;;;;;5.03;1.67;;;25.40;57.40;;;;;;5091833;28;20109;-85
2023/05/03 10:33:12;;;;;;;4.72;1.58;;;25.20;58.20;;;;;;5091646;28;20024;-84
2023/05/03 10:35:40;;;;;;;3.38;1.73;;;25.40;58.30;;;;;;5093082;28;20031;-86
2023/05/03 10:38:16;;;;;;;4.55;1.92;;;25.50;58.00;;;;;;5092007;28;20128;-85
2023/05/03 10:40:43;;;;;;;3.67;1.75;;;25.60;58.10;;;;;;5094079;28;20032;-85
2023/05/03 10:43:27;;;;;;;6.13;1.88;;;25.20;57.50;;;;;;5092457;28;20028;-86
2023/05/03 10:45:56;;;;;;;4.35;1.90;;;25.10;57.10;;;;;;5092155;28;20028;-85
2023/05/03 10:48:21;;;;;;;4.85;2.03;;;24.90;57.20;;;;;;5093461;28;20378;-87
2023/05/03 10:50:48;;;;;;;5.68;2.22;;;24.90;56.80;;;;;;5093050;28;20027;-86
2023/05/03 10:53:35;;;;;;;5.70;1.83;;;24.70;55.90;;;;;;5091413;28;20035;-86
2023/05/03 10:56:06;;;;;;;3.67;1.63;;;24.90;58.10;;;;;;5091635;28;20039;-85
2023/05/03 10:58:36;;;;;;;2.30;1.40;;;24.90;57.30;;;;;;5093213;28;20020;-85
2023/05/03 11:01:03;;;;;;;3.97;1.80;;;25.00;57.90;;;;;;5090745;28;20501;-85
2023/05/03 11:03:32;;;;;;;3.28;1.95;;;25.30;57.80;;;;;;5091702;28;20013;-85
2023/05/03 11:05:58;;;;;;;3.47;1.67;;;25.40;55.00;;;;;;5095433;28;20020;-86
2023/05/03 11:08:29;;;;;;;4.55;1.73;;;25.20;53.50;;;;;;5091966;28;20027;-85
2023/05/03 11:10:59;;;;;;;8.63;2.33;;;24.90;54.30;;;;;;5092783;28;20071;-86
2023/05/03 11:13:26;;;;;;;3.15;1.67;;;24.50;54.20;;;;;;5092828;28;20035;-86
2023/05/03 11:15:53;;;;;;;3.47;1.65;;;24.10;56.70;;;;;;5093813;28;20111;-86
2023/05/03 11:18:19;;;;;;;4.15;1.95;;;23.90;58.60;;;;;;5094157;28;20481;-86
2023/05/03 11:20:45;;;;;;;2.58;1.50;;;23.60;58.10;;;;;;5094828;28;20048;-85
2023/05/03 11:23:11;;;;;;;3.92;1.80;;;23.50;58.40;;;;;;5094109;28;20017;-85
2023/05/03 11:25:38;;;;;;;6.03;1.30;;;23.30;58.50;;;;;;5093982;28;20032;-86
2023/05/03 11:28:04;;;;;;;3.13;1.40;;;23.10;59.00;;;;;;5093694;28;20016;-85
2023/05/03 11:30:33;;;;;;;4.93;1.67;;;22.80;60.70;;;;;;5092731;28;20034;-86
2023/05/03 11:32:59;;;;;;;4.90;2.10;;;22.60;62.10;;;;;;5092848;28;20028;-85
2023/05/03 11:35:27;;;;;;;4.25;1.60;;;22.40;62.80;;;;;;5092715;28;20357;-86
2023/05/03 11:37:53;;;;;;;5.03;1.50;;;22.10;64.10;;;;;;5092723;28;20119;-85
2023/05/03 11:40:20;;;;;;;4.70;2.00;;;22.00;65.30;;;;;;5093783;28;20111;-87
2023/05/03 11:42:57;;;;;;;5.05;2.10;;;21.70;66.30;;;;;;5090582;28;20020;-87
2023/05/03 11:45:30;;;;;;;4.80;2.33;;;21.60;68.60;;;;;;5091583;28;20039;-87
2023/05/03 11:47:57;;;;;;;5.88;2.05;;;21.50;70.20;;;;;;5090401;28;20107;-88
2023/05/03 11:50:43;;;;;;;7.28;4.25;;;21.30;71.70;;;;;;5091923;28;20036;-88
2023/05/03 11:53:10;;;;;;;8.05;2.60;;;21.20;74.00;;;;;;5090506;28;20032;-88
2023/05/03 11:55:39;;;;;;;13.77;3.83;;;21.00;81.80;;;;;;5091741;28;20066;-86
2023/05/03 11:58:25;;;;;;;27.73;12.52;;;20.90;96.50;;;;;;5092495;28;20031;-87
2023/05/03 12:00:56;;;;;;;27.05;13.88;;;20.60;99.90;;;;;;5090557;28;20457;-86
2023/05/03 12:03:31;;;;;;;11.68;6.00;;;20.40;99.90;;;;;;5089888;28;20081;-85
2023/05/03 12:05:58;;;;;;;14.10;4.70;;;20.20;99.90;;;;;;5089750;28;20024;-87
2023/05/03 12:08:31;;;;;;;28.42;5.65;;;20.00;99.90;;;;;;5091763;28;20032;-87
2023/05/03 12:10:57;;;;;;;19.10;5.50;;;19.70;99.90;;;;;;5093322;28;20024;-88
2023/05/03 12:13:55;;;;;;;7.30;3.60;;;19.40;99.90;;;;;;5092164;28;20028;-87
2023/05/03 12:16:21;;;;;;;5.93;2.92;;;18.90;99.90;;;;;;5058132;28;20028;-88
2023/05/03 12:18:54;;;;;;;8.18;2.60;;;18.50;99.90;;;;;;5091953;28;20097;-88
2023/05/03 12:21:21;;;;;;;7.65;3.38;;;18.20;99.90;;;;;;5091963;28;20042;-87
2023/05/03 12:23:48;;;;;;;9.40;2.85;;;18.00;99.90;;;;;;5091803;28;20048;-85
2023/05/03 12:26:15;;;;;;;6.13;2.53;;;17.90;99.90;;;;;;5091107;28;20446;-86
2023/05/03 12:28:41;;;;;;;4.25;2.45;;;17.80;99.90;;;;;;5092019;28;20032;-87
2023/05/03 12:31:07;;;;;;;6.57;2.60;;;17.80;99.90;;;;;;5092133;28;20024;-88
2023/05/03 12:33:33;;;;;;;7.93;3.17;;;17.90;99.90;;;;;;5090030;28;20127;-87
2023/05/03 12:35:59;;;;;;;9.10;2.45;;;18.00;99.90;;;;;;5089308;28;20111;-88
2023/05/03 12:38:24;;;;;;;4.30;2.10;;;18.00;99.90;;;;;;5089837;28;20036;-88
2023/05/03 12:40:51;;;;;;;6.68;1.83;;;18.00;99.90;;;;;;5090728;28;20040;-88
2023/05/03 12:43:17;;;;;;;4.43;1.80;;;18.00;99.90;;;;;;5090149;28;20028;-86
2023/05/03 12:45:43;;;;;;;2.92;1.70;;;18.10;99.90;;;;;;5089412;28;20032;-85
2023/05/03 12:48:08;;;;;;;3.58;1.98;;;18.10;99.90;;;;;;5090091;28;20024;-86
2023/05/03 12:50:34;;;;;;;4.55;1.80;;;18.00;99.90;;;;;;5089302;28;20031;-87
2023/05/03 12:53:00;;;;;;;8.13;1.45;;;17.80;99.90;;;;;;5088847;28;20408;-88
2023/05/03 12:55:26;;;;;;;8.32;2.00;;;17.60;99.90;;;;;;5090063;28;20036;-87